Time;durP1;ratioP1;P1;durP2;ratioP2;P2;SDS_P1;SDS_P2;PMS_P1;PMS_P2;Temp;Humidity;BMP_temperature;BMP_pressure;BME280_temperature;BME280_humidity;BME280_pressure;Samples;Min_cycle;Max_cycle;Signal;HPM_P1;HPM_P2
2022/11/13 03:02:38;;;;;;;13.65;5.13;;;;;;;12.72;99.02;100717.75;4699331;22;8338688;-44
2022/11/13 03:05:05;;;;;;;14.73;5.65;;;;;;;12.71;99.23;100710.59;4930801;29;20532;-45
2022/11/13 03:07:41;;;;;;;22.45;4.55;;;;;;;12.72;99.20;100723.31;4932216;29;20101;-48
2022/11/13 03:10:09;;;;;;;16.00;4.70;;;;;;;12.73;99.51;100715.78;4930635;29;20043;-50
2022/11/13 03:12:36;;;;;;;13.07;4.40;;;;;;;12.74;99.59;100720.97;4930424;29;20052;-45
2022/11/13 03:15:04;;;;;;;13.52;5.70;;;;;;;12.77;99.70;100723.03;4932116;29;20051;-47
2022/11/13 03:17:31;;;;;;;20.90;6.82;;;;;;;12.79;99.67;100720.69;4931739;29;20048;-45
2022/11/13 03:19:58;;;;;;;18.75;6.32;;;;;;;12.79;99.65;100712.38;4931496;29;20520;-44
2022/11/13 03:22:25;;;;;;;16.92;5.43;;;;;;;12.82;99.74;100714.44;4931730;29;20490;-44
2022/11/13 03:24:52;;;;;;;19.73;4.95;;;;;;;12.84;99.64;100716.84;4932028;29;20072;-48
2022/11/13 03:27:19;;;;;;;20.70;4.70;;;;;;;12.85;99.82;100715.69;4931860;29;20062;-46
2022/11/13 03:29:46;;;;;;;14.25;5.45;;;;;;;12.88;99.75;100714.16;4930584;29;20043;-45
2022/11/13 03:32:13;;;;;;;20.27;5.15;;;;;;;12.88;99.98;100705.81;4931616;29;20098;-45
2022/11/13 03:34:39;;;;;;;15.18;5.38;;;;;;;12.87;99.61;100698.66;4931382;29;20059;-45
2022/11/13 03:37:06;;;;;;;22.08;5.00;;;;;;;12.88;99.79;100694.69;4931103;29;20058;-44
2022/11/13 03:39:33;;;;;;;16.70;5.00;;;;;;;12.88;99.85;100689.94;4931318;29;20052;-44
2022/11/13 03:42:00;;;;;;;18.35;7.40;;;;;;;12.89;99.74;100696.31;4929513;29;20405;-50
2022/11/13 03:44:26;;;;;;;18.60;5.38;;;;;;;12.88;99.98;100691.91;4931303;29;20159;-44
2022/11/13 03:46:53;;;;;;;19.23;6.03;;;;;;;12.91;99.99;100697.56;4931299;29;20130;-48
2022/11/13 03:49:20;;;;;;;18.67;5.38;;;;;;;12.93;100.00;100688.84;4932390;29;20052;-46
2022/11/13 03:51:47;;;;;;;20.90;5.80;;;;;;;12.95;100.00;100681.75;4932880;29;20078;-46
2022/11/13 03:54:13;;;;;;;26.38;6.72;;;;;;;12.99;100.00;100687.41;4932272;29;20048;-46
2022/11/13 03:56:40;;;;;;;20.65;5.32;;;;;;;13.02;100.00;100697.81;4932088;29;20059;-44
2022/11/13 03:59:07;;;;;;;23.65;6.47;;;;;;;13.04;100.00;100701.03;4929639;29;20040;-44
2022/11/13 04:01:34;;;;;;;18.05;5.93;;;;;;;13.07;100.00;100703.13;4938865;29;20059;-43
2022/11/13 04:04:00;;;;;;;23.77;6.45;;;;;;;13.10;100.00;100696.84;4951246;29;20051;-49
2022/11/13 04:06:27;;;;;;;19.00;5.65;;;;;;;13.15;100.00;100693.75;4951742;29;20501;-45
2022/11/13 04:08:54;;;;;;;19.27;5.97;;;;;;;13.18;100.00;100690.25;4948801;28;20049;-44
2022/11/13 04:11:20;;;;;;;14.40;5.10;;;;;;;13.18;100.00;100681.91;4951611;28;20062;-45
2022/11/13 04:13:47;;;;;;;28.38;4.82;;;;;;;13.20;100.00;100679.56;4951529;29;20043;-44
2022/11/13 04:16:14;;;;;;;17.13;4.78;;;;;;;13.22;100.00;100671.66;4951054;29;20114;-46
2022/11/13 04:18:41;;;;;;;21.42;6.80;;;;;;;13.24;100.00;100674.88;4950191;28;20059;-45
2022/11/13 04:21:07;;;;;;;20.98;4.82;;;;;;;13.25;100.00;100676.50;4950481;28;20430;-44
2022/11/13 04:23:34;;;;;;;16.08;4.93;;;;;;;13.26;100.00;100664.22;4948266;28;20046;-47
2022/11/13 04:26:01;;;;;;;16.08;5.65;;;;;;;13.27;100.00;100663.84;4948516;28;20051;-46
2022/11/13 04:28:27;;;;;;;15.90;4.80;;;;;;;13.28;99.98;100664.66;4948522;28;20047;-47
2022/11/13 04:30:55;;;;;;;24.25;5.28;;;;;;;13.25;99.93;100654.25;4948982;28;20485;-47
2022/11/13 04:33:22;;;;;;;23.67;6.13;;;;;;;13.24;99.79;100659.00;4948448;28;20496;-46
2022/11/13 04:35:49;;;;;;;24.02;6.03;;;;;;;13.22;99.75;100655.00;4950603;28;20058;-46
2022/11/13 04:38:16;;;;;;;38.10;7.93;;;;;;;13.21;99.92;100650.63;4949476;28;20397;-44
2022/11/13 04:40:42;;;;;;;30.38;6.30;;;;;;;13.17;100.00;100644.16;4946187;28;20043;-44
2022/11/13 04:43:09;;;;;;;26.05;6.85;;;;;;;13.13;100.00;100651.63;4950626;29;20485;-53
2022/11/13 04:45:36;;;;;;;29.52;8.48;;;;;;;13.10;100.00;100660.69;4949568;28;20122;-45
2022/11/13 04:48:03;;;;;;;27.10;7.00;;;;;;;13.09;100.00;100653.53;4949593;28;20047;-46
2022/11/13 04:50:30;;;;;;;17.88;6.00;;;;;;;13.08;100.00;100655.50;4949021;28;20077;-45
2022/11/13 04:52:57;;;;;;;26.58;6.63;;;;;;;13.09;100.00;100659.06;4950514;28;20051;-44
2022/11/13 04:55:24;;;;;;;24.17;6.28;;;;;;;13.08;100.00;100660.25;4949130;28;20051;-50
2022/11/13 04:57:54;;;;;;;20.42;6.38;;;;;;;13.08;100.00;100649.16;4949437;28;20047;-46
2022/11/13 05:00:21;;;;;;;35.95;7.82;;;;;;;13.09;100.00;100659.88;4947949;28;20098;-44
2022/11/13 05:02:48;;;;;;;29.10;7.13;;;;;;;13.10;100.00;100660.69;4940272;29;20430;-47
2022/11/13 05:05:15;;;;;;;34.85;6.65;;;;;;;13.10;100.00;100657.91;4942616;29;20099;-43
2022/11/13 05:07:42;;;;;;;30.90;7.13;;;;;;;13.10;100.00;100655.94;4933785;29;20079;-44
2022/11/13 05:10:09;;;;;;;27.75;8.32;;;;;;;13.11;100.00;100659.50;4935717;29;20114;-46
2022/11/13 05:12:35;;;;;;;35.13;9.48;;;;;;;13.12;100.00;100655.56;4931975;29;20047;-46
2022/11/13 05:15:03;;;;;;;34.28;8.07;;;;;;;13.11;100.00;100643.66;4942726;29;20047;-49
2022/11/13 05:17:30;;;;;;;36.58;9.02;;;;;;;13.11;100.00;100656.72;4929405;29;20512;-45
2022/11/13 05:19:56;;;;;;;27.75;7.03;;;;;;;13.11;100.00;100637.28;4938916;29;20484;-44
2022/11/13 05:22:23;;;;;;;37.10;8.00;;;;;;;13.10;100.00;100635.69;4938268;29;20484;-50
2022/11/13 05:24:50;;;;;;;16.27;6.55;;;;;;;13.10;100.00;100632.91;4944577;29;20123;-45
2022/11/13 05:27:16;;;;;;;24.80;8.73;;;;;;;13.10;100.00;100627.34;4929828;29;20059;-44
2022/11/13 05:29:44;;;;;;;37.60;7.70;;;;;;;13.09;100.00;100625.72;4939121;29;20076;-47
2022/11/13 05:32:11;;;;;;;35.88;7.00;;;;;;;13.09;100.00;100614.59;4939311;29;20048;-49
2022/11/13 05:34:37;;;;;;;40.05;10.88;;;;;;;13.10;100.00;100616.22;4940544;29;20052;-47
2022/11/13 05:37:04;;;;;;;22.92;8.38;;;;;;;13.08;100.00;100599.13;4935554;29;20090;-45
2022/11/13 05:39:31;;;;;;;26.25;8.25;;;;;;;13.06;100.00;100610.56;4935011;29;20056;-50
2022/11/13 05:41:57;;;;;;;25.73;7.25;;;;;;;13.05;100.00;100608.16;4937492;29;20055;-45
2022/11/13 05:44:24;;;;;;;32.85;6.82;;;;;;;13.03;100.00;100605.72;4931475;29;20047;-45
2022/11/13 05:46:51;;;;;;;29.75;8.45;;;;;;;13.02;100.00;100606.91;4933447;29;20054;-49
2022/11/13 05:49:17;;;;;;;28.27;8.15;;;;;;;13.03;100.00;100594.59;4934476;29;20054;-46
2022/11/13 05:51:44;;;;;;;23.33;6.00;;;;;;;13.03;100.00;100591.81;4937328;29;20079;-43
2022/11/13 05:54:11;;;;;;;18.88;5.80;;;;;;;13.02;100.00;100594.97;4952399;29;20043;-45
2022/11/13 05:56:39;;;;;;;23.00;7.80;;;;;;;13.00;100.00;100587.00;4947940;29;20051;-45
2022/11/13 05:59:06;;;;;;;37.38;10.27;;;;;;;13.00;100.00;100594.56;4938956;29;20047;-44
2022/11/13 06:01:36;;;;;;;28.80;8.65;;;;;;;13.00;100.00;100586.22;4937548;29;20055;-47
2022/11/13 06:04:04;;;;;;;29.17;8.07;;;;;;;12.98;100.00;100592.13;4949138;29;20516;-46
2022/11/13 06:06:31;;;;;;;22.85;7.05;;;;;;;12.99;100.00;100596.53;4953618;29;20058;-47
2022/11/13 06:08:59;;;;;;;29.05;7.32;;;;;;;13.01;100.00;100598.91;4938870;29;20054;-47
2022/11/13 06:11:28;;;;;;;29.05;6.85;;;;;;;13.00;100.00;100589.78;4940460;29;20051;-44
2022/11/13 06:13:57;;;;;;;23.55;7.30;;;;;;;13.01;100.00;100594.16;4953493;29;20047;-51
2022/11/13 06:16:34;;;;;;;29.23;8.27;;;;;;;13.02;100.00;100589.41;4950264;29;20055;-46
2022/11/13 06:19:04;;;;;;;17.50;6.93;;;;;;;13.03;100.00;100589.03;4943764;29;20050;-44
2022/11/13 06:21:33;;;;;;;33.40;7.75;;;;;;;13.05;100.00;100588.69;4929897;29;20051;-44
2022/11/13 06:24:00;;;;;;;24.90;6.75;;;;;;;13.06;100.00;100598.63;4934209;29;20509;-44
2022/11/13 06:26:32;;;;;;;23.90;6.68;;;;;;;13.06;100.00;100590.28;4950375;29;20146;-50
2022/11/13 06:29:00;;;;;;;21.67;5.93;;;;;;;13.07;100.00;100594.72;4941436;29;20390;-46
2022/11/13 06:31:30;;;;;;;22.65;6.30;;;;;;;13.08;100.00;100582.44;4937723;29;20094;-44
2022/11/13 06:33:58;;;;;;;20.80;6.20;;;;;;;13.09;100.00;100584.84;4932561;29;20106;-45
2022/11/13 06:36:34;;;;;;;29.65;6.28;;;;;;;13.10;100.00;100575.34;4937419;29;20074;-45
2022/11/13 06:39:04;;;;;;;25.63;7.00;;;;;;;13.11;100.00;100581.69;4944648;29;20051;-43
2022/11/13 06:41:31;;;;;;;20.63;6.05;;;;;;;13.12;100.00;100577.75;4944393;29;20052;-43
2022/11/13 06:43:58;;;;;;;27.17;8.10;;;;;;;13.11;100.00;100576.13;4936509;29;20043;-44
2022/11/13 06:46:29;;;;;;;24.60;6.90;;;;;;;13.11;100.00;100579.72;4925563;29;20043;-44
2022/11/13 06:48:56;;;;;;;20.35;5.93;;;;;;;13.10;100.00;100585.66;4936603;29;20047;-45
2022/11/13 06:51:30;;;;;;;30.98;8.35;;;;;;;13.09;100.00;100581.25;4941533;29;20090;-44
2022/11/13 06:53:57;;;;;;;26.48;7.15;;;;;;;13.08;100.00;100586.00;4941267;29;20047;-44
2022/11/13 06:56:24;;;;;;;22.38;6.22;;;;;;;13.08;100.00;100565.75;4948708;28;20051;-45
2022/11/13 06:58:52;;;;;;;20.88;6.97;;;;;;;13.08;100.00;100582.44;4939713;29;20071;-46
2022/11/13 07:01:21;;;;;;;17.65;6.53;;;;;;;13.08;100.00;100571.31;4936938;29;20051;-46
2022/11/13 07:03:48;;;;;;;24.17;6.90;;;;;;;13.06;100.00;100577.19;4928765;29;21006;-47
2022/11/13 07:06:21;;;;;;;14.63;6.35;;;;;;;13.06;100.00;100570.84;4947911;29;20057;-45
2022/11/13 07:08:48;;;;;;;27.02;7.55;;;;;;;13.05;100.00;100577.56;4948060;29;20066;-50
2022/11/13 07:11:21;;;;;;;30.02;8.60;;;;;;;13.03;100.00;100568.78;4937699;29;20035;-44
2022/11/13 07:13:49;;;;;;;31.58;8.27;;;;;;;13.04;100.00;100575.97;4932329;29;20050;-54
2022/11/13 07:16:17;;;;;;;21.70;6.63;;;;;;;13.03;100.00;100579.91;4935256;29;20047;-46
2022/11/13 07:18:51;;;;;;;26.90;8.55;;;;;;;13.02;100.00;100583.88;4931192;29;20054;-49
2022/11/13 07:21:19;;;;;;;22.52;7.38;;;;;;;13.01;100.00;100582.25;4947898;29;20050;-47
2022/11/13 07:23:48;;;;;;;28.02;7.28;;;;;;;13.01;100.00;100577.50;4931803;29;20055;-45
2022/11/13 07:26:14;;;;;;;23.08;7.70;;;;;;;13.02;100.00;100567.19;4935660;29;20065;-44
2022/11/13 07:28:41;;;;;;;25.40;7.78;;;;;;;13.02;100.00;100576.34;4951213;29;20150;-48
2022/11/13 07:31:10;;;;;;;30.83;7.78;;;;;;;13.02;100.00;100568.00;4936650;29;20058;-45
2022/11/13 07:33:37;;;;;;;26.60;9.82;;;;;;;13.02;100.00;100564.41;4938379;29;20142;-46
2022/11/13 07:36:05;;;;;;;21.58;7.32;;;;;;;13.05;100.00;100572.03;4938061;29;20047;-46
2022/11/13 07:38:31;;;;;;;30.42;6.63;;;;;;;13.05;100.00;100569.25;4937108;29;20043;-51
2022/11/13 07:40:59;;;;;;;29.42;6.22;;;;;;;13.06;100.00;100574.41;4938398;29;20461;-47
2022/11/13 07:43:26;;;;;;;19.48;7.03;;;;;;;13.08;100.00;100571.31;4933213;29;20051;-45
2022/11/13 07:45:56;;;;;;;25.17;8.48;;;;;;;13.10;100.00;100574.53;4930477;29;20058;-45
2022/11/13 07:48:23;;;;;;;30.77;7.13;;;;;;;13.11;100.00;100574.16;4944664;29;20150;-44
2022/11/13 07:50:50;;;;;;;25.77;8.52;;;;;;;13.12;100.00;100566.63;4937671;29;20130;-46
2022/11/13 07:53:18;;;;;;;24.52;7.35;;;;;;;13.13;100.00;100582.16;4946522;29;20465;-44
2022/11/13 07:55:46;;;;;;;23.45;8.15;;;;;;;13.15;100.00;100583.38;4947000;29;20051;-47
2022/11/13 07:58:13;;;;;;;23.20;7.45;;;;;;;13.18;100.00;100584.63;4949984;29;20043;-45
2022/11/13 08:00:40;;;;;;;25.80;7.63;;;;;;;13.18;100.00;100590.19;4947089;29;20058;-46
2022/11/13 08:03:10;;;;;;;25.30;8.88;;;;;;;13.21;100.00;100595.03;4944817;28;20055;-47
2022/11/13 08:05:38;;;;;;;22.75;7.82;;;;;;;13.24;100.00;100597.03;4946182;29;20057;-45
2022/11/13 08:08:06;;;;;;;19.13;7.82;;;;;;;13.25;100.00;100598.66;4939308;29;20039;-49
2022/11/13 08:10:33;;;;;;;22.40;6.93;;;;;;;13.25;100.00;100615.34;4944902;29;20398;-45
2022/11/13 08:13:05;;;;;;;32.33;8.65;;;;;;;13.27;100.00;100601.88;4951135;29;20553;-45
2022/11/13 08:15:32;;;;;;;20.02;7.30;;;;;;;13.28;100.00;100603.50;4939990;29;20051;-47
2022/11/13 08:18:01;;;;;;;24.27;8.05;;;;;;;13.30;100.00;100609.47;4949682;29;20043;-51
2022/11/13 08:20:29;;;;;;;24.17;8.23;;;;;;;13.30;100.00;100607.50;4941249;29;20055;-44
2022/11/13 08:22:57;;;;;;;26.45;8.90;;;;;;;13.33;100.00;100603.19;4944992;29;20069;-47
2022/11/13 08:25:24;;;;;;;24.50;7.45;;;;;;;13.33;100.00;100595.66;4930382;29;20134;-44
2022/11/13 08:27:53;;;;;;;26.13;6.70;;;;;;;13.35;100.00;100598.88;4936157;29;20058;-44
2022/11/13 08:30:20;;;;;;;25.35;9.18;;;;;;;13.37;100.00;100590.16;4951164;29;20122;-45
2022/11/13 08:32:47;;;;;;;23.08;7.13;;;;;;;13.36;100.00;100583.00;4939834;29;20091;-45
2022/11/13 08:35:15;;;;;;;16.13;7.25;;;;;;;13.38;100.00;100580.66;4941448;29;20054;-44
2022/11/13 08:37:45;;;;;;;22.08;7.82;;;;;;;13.40;100.00;100589.41;4946748;29;20048;-44
2022/11/13 08:40:12;;;;;;;20.38;7.60;;;;;;;13.40;100.00;100589.41;4951295;29;20062;-45
2022/11/13 08:42:38;;;;;;;27.77;9.13;;;;;;;13.42;100.00;100584.31;4944108;29;20598;-46
2022/11/13 08:45:07;;;;;;;32.88;9.55;;;;;;;13.43;100.00;100583.94;4930513;29;20058;-47
2022/11/13 08:47:33;;;;;;;21.83;7.65;;;;;;;13.44;100.00;100590.31;4938328;29;20481;-43
2022/11/13 08:50:00;;;;;;;23.05;8.00;;;;;;;13.45;100.00;100582.78;4943622;29;20048;-45
2022/11/13 08:52:27;;;;;;;21.40;7.78;;;;;;;13.44;100.00;100584.75;4935766;29;20062;-45
2022/11/13 08:54:54;;;;;;;27.15;7.78;;;;;;;13.45;100.00;100583.56;4926420;29;20035;-44
2022/11/13 08:57:21;;;;;;;25.95;7.72;;;;;;;13.43;100.00;100581.16;4928343;29;20047;-47
2022/11/13 08:59:48;;;;;;;23.42;7.43;;;;;;;13.44;100.00;100587.53;4933111;29;20173;-48
2022/11/13 09:02:15;;;;;;;22.73;8.23;;;;;;;13.43;100.00;100595.06;4942753;29;20054;-46
2022/11/13 09:04:41;;;;;;;26.45;8.00;;;;;;;13.43;100.00;100580.34;4942954;29;20054;-45
2022/11/13 09:07:08;;;;;;;25.48;8.07;;;;;;;13.43;100.00;100575.59;4950574;29;20050;-45
2022/11/13 09:09:36;;;;;;;42.70;8.75;;;;;;;13.45;100.00;100566.88;4949759;29;20567;-41
2022/11/13 09:12:03;;;;;;;36.63;10.60;;;;;;;13.47;100.00;100574.88;4951062;29;20051;-43
2022/11/13 09:14:30;;;;;;;30.08;8.63;;;;;;;13.47;100.00;100572.06;4929455;29;20098;-46
2022/11/13 09:16:56;;;;;;;39.78;9.27;;;;;;;13.46;100.00;100571.28;4940526;29;20509;-46
2022/11/13 09:19:23;;;;;;;25.90;8.20;;;;;;;13.49;100.00;100567.75;4948764;28;20058;-44
2022/11/13 09:21:51;;;;;;;29.15;8.82;;;;;;;13.49;100.00;100564.97;4954371;29;20508;-45
2022/11/13 09:24:18;;;;;;;44.08;11.85;;;;;;;13.51;100.00;100562.63;4940798;29;20036;-45
2022/11/13 09:26:45;;;;;;;36.50;10.20;;;;;;;13.51;100.00;100548.72;4954406;29;20651;-49
2022/11/13 09:29:11;;;;;;;34.65;12.13;;;;;;;13.53;100.00;100557.47;4913586;29;20059;-45
2022/11/13 09:31:39;;;;;;;21.88;7.85;;;;;;;13.54;100.00;100559.09;4944498;29;20143;-49
2022/11/13 09:34:07;;;;;;;33.60;8.88;;;;;;;13.55;100.00;100566.28;4946045;29;20047;-45
2022/11/13 09:36:35;;;;;;;27.83;9.13;;;;;;;13.55;100.00;100562.69;4954098;29;20506;-45
2022/11/13 09:39:05;;;;;;;33.03;9.07;;;;;;;13.56;100.00;100558.72;4939570;29;20051;-45
2022/11/13 09:41:38;;;;;;;29.30;8.52;;;;;;;13.59;100.00;100552.44;4947371;29;20082;-49
2022/11/13 09:44:21;;;;;;;28.23;7.53;;;;;;;13.63;100.00;100542.19;4937248;29;20047;-45
2022/11/13 09:46:59;;;;;;;29.75;8.40;;;;;;;13.65;100.00;100551.75;4948242;29;20114;-45
2022/11/13 09:49:31;;;;;;;23.67;8.15;;;;;;;13.68;100.00;100544.66;4954264;29;20051;-46
2022/11/13 09:52:08;;;;;;;26.95;7.60;;;;;;;13.69;100.00;100541.47;4951220;29;20050;-45
2022/11/13 09:54:35;;;;;;;28.58;8.38;;;;;;;13.69;100.00;100547.03;4945528;29;20051;-44
2022/11/13 09:57:23;;;;;;;30.33;7.93;;;;;;;13.69;100.00;100551.81;4947922;29;20043;-49
2022/11/13 10:00:01;;;;;;;27.95;7.57;;;;;;;13.69;100.00;100538.69;4953929;29;20086;-44
2022/11/13 10:02:47;;;;;;;29.98;8.05;;;;;;;13.70;100.00;100542.28;4953484;29;20054;-47
2022/11/13 10:05:26;;;;;;;35.05;10.10;;;;;;;13.70;100.00;100537.53;4937280;29;20048;-45
2022/11/13 10:08:17;;;;;;;30.73;7.55;;;;;;;13.71;100.00;100541.94;4950584;29;20405;-47
2022/11/13 10:11:17;;;;;;;31.65;8.63;;;;;;;13.73;100.00;100539.59;4953758;29;20055;-46
2022/11/13 10:13:50;;;;;;;27.10;8.57;;;;;;;13.75;100.00;100533.63;4953758;29;20055;-45
2022/11/13 10:16:38;;;;;;;35.78;9.70;;;;;;;13.75;100.00;100526.09;4937687;29;20069;-45
2022/11/13 10:19:22;;;;;;;27.70;8.50;;;;;;;13.76;100.00;100536.06;4953466;29;20040;-45
2022/11/13 10:21:57;;;;;;;31.73;11.48;;;;;;;13.74;100.00;100520.91;4936784;29;20051;-44
2022/11/13 10:24:46;;;;;;;30.67;9.60;;;;;;;13.74;100.00;100521.69;4950082;29;20058;-50
2022/11/13 10:27:15;;;;;;;24.23;9.15;;;;;;;13.76;100.00;100519.38;4953498;29;20063;-47
2022/11/13 10:29:42;;;;;;;33.70;9.13;;;;;;;13.78;100.00;100519.78;4953017;28;20054;-46
2022/11/13 10:32:25;;;;;;;32.38;8.80;;;;;;;13.80;100.00;100519.41;4952963;29;20051;-46
2022/11/13 10:34:59;;;;;;;22.27;6.90;;;;;;;13.83;100.00;100518.66;4948449;29;20501;-45
2022/11/13 10:37:44;;;;;;;29.20;7.45;;;;;;;13.86;100.00;100523.50;4950091;29;20056;-44
2022/11/13 10:40:10;;;;;;;24.77;7.80;;;;;;;13.85;100.00;100506.00;4936939;29;20400;-45
2022/11/13 10:42:40;;;;;;;22.95;7.38;;;;;;;13.88;100.00;100515.56;4938427;29;20052;-45
2022/11/13 10:45:17;;;;;;;30.08;10.43;;;;;;;13.89;100.00;100512.44;4947065;29;20078;-45
2022/11/13 10:47:51;;;;;;;20.70;6.85;;;;;;;13.90;100.00;100505.66;4953183;29;20067;-45
2022/11/13 10:50:35;;;;;;;26.63;6.95;;;;;;;13.94;100.00;100511.31;4953256;29;20078;-45
2022/11/13 10:53:02;;;;;;;21.77;6.38;;;;;;;13.97;100.00;100511.38;4936282;29;20067;-47
2022/11/13 10:55:40;;;;;;;20.88;6.65;;;;;;;14.02;100.00;100499.91;4941144;29;20043;-45
2022/11/13 10:58:16;;;;;;;15.20;5.82;;;;;;;14.06;100.00;100502.72;4951036;29;20043;-45
2022/11/13 11:00:47;;;;;;;13.63;5.50;;;;;;;14.09;100.00;100499.19;4948431;29;20505;-50
2022/11/13 11:03:21;;;;;;;35.15;10.25;;;;;;;14.14;100.00;100512.03;4948260;29;20051;-46
2022/11/13 11:05:52;;;;;;;24.95;6.85;;;;;;;14.17;100.00;100511.25;4948727;29;20055;-47
2022/11/13 11:08:24;;;;;;;27.45;7.65;;;;;;;14.21;100.00;100498.19;4953020;29;20055;-45
2022/11/13 11:13:47;;;;;;;17.52;6.35;;;;;;;14.24;100.00;100484.34;4943965;29;20058;-51
2022/11/13 11:16:21;;;;;;;18.92;7.47;;;;;;;14.28;100.00;100489.94;4943838;29;20049;-46
2022/11/13 11:18:56;;;;;;;15.27;5.97;;;;;;;14.30;100.00;100476.44;4952174;29;20039;-53
2022/11/13 11:21:30;;;;;;;26.33;6.57;;;;;;;14.33;100.00;100472.94;4952245;29;20058;-46
2022/11/13 11:24:30;;;;;;;24.67;6.25;;;;;;;14.39;100.00;100468.63;4925057;29;20051;-45
2022/11/13 11:27:14;;;;;;;20.05;6.57;;;;;;;14.42;100.00;100467.88;4926624;29;20486;-45
2022/11/13 11:29:43;;;;;;;17.08;6.28;;;;;;;14.44;100.00;100466.34;4952250;29;20049;-49
2022/11/13 11:32:18;;;;;;;20.67;5.70;;;;;;;14.50;100.00;100458.44;4941526;29;20046;-45
2022/11/13 11:34:52;;;;;;;14.75;5.18;;;;;;;14.54;99.73;100467.63;4948726;29;20043;-44
2022/11/13 11:37:34;;;;;;;24.27;7.10;;;;;;;14.56;99.33;100456.94;4952673;29;20048;-46
2022/11/13 11:40:11;;;;;;;21.55;5.80;;;;;;;14.60;99.18;100460.56;4952029;29;20039;-47
2022/11/13 11:42:40;;;;;;;15.85;6.15;;;;;;;14.64;98.95;100453.03;4935098;29;20059;-50
2022/11/13 11:45:24;;;;;;;22.15;10.27;;;;;;;14.67;98.74;100443.91;4945665;29;20139;-45
2022/11/13 11:47:52;;;;;;;17.08;6.10;;;;;;;14.71;98.42;100442.00;4942420;29;20052;-45
2022/11/13 11:50:45;;;;;;;15.40;7.93;;;;;;;14.74;98.20;100432.88;4941037;29;20052;-46
2022/11/13 11:53:19;;;;;;;23.45;8.88;;;;;;;14.78;97.91;100430.91;4939449;29;20565;-45
2022/11/13 11:56:01;;;;;;;18.80;7.30;;;;;;;14.80;97.70;100434.13;4945199;29;20060;-45
2022/11/13 11:58:55;;;;;;;18.05;6.28;;;;;;;14.81;97.49;100424.59;4943869;29;20536;-45
2022/11/13 12:01:53;;;;;;;12.82;6.18;;;;;;;14.85;97.19;100417.06;4924208;29;20059;-46
2022/11/13 12:04:29;;;;;;;10.90;4.68;;;;;;;14.87;97.03;100409.13;4951295;29;20043;-45
2022/11/13 12:07:13;;;;;;;18.17;6.32;;;;;;;14.89;96.92;100415.13;4952318;28;20082;-45
2022/11/13 12:10:12;;;;;;;15.07;5.93;;;;;;;14.90;96.70;100408.38;4951364;29;20122;-44
2022/11/13 12:12:47;;;;;;;15.63;6.20;;;;;;;14.91;96.57;100411.94;4950451;28;20047;-46
2022/11/13 12:15:19;;;;;;;14.65;6.65;;;;;;;14.89;95.81;100403.97;4951363;29;20279;-44
2022/11/13 12:17:49;;;;;;;;;;;;;;;14.86;95.77;100398.34;4951650;29;20047;-45
2022/11/13 12:20:28;;;;;;;16.45;5.35;;;;;;;14.87;95.83;100384.03;4951264;29;20123;-44
2022/11/13 12:23:19;;;;;;;29.05;7.50;;;;;;;14.88;95.90;100396.78;4949277;29;20408;-46
2022/11/13 12:26:07;;;;;;;12.70;5.70;;;;;;;14.90;95.62;100388.84;4950855;29;20051;-46
2022/11/13 12:28:34;;;;;;;18.88;5.65;;;;;;;14.97;95.66;100388.91;4951263;29;20047;-48
2022/11/13 12:31:12;;;;;;;12.07;4.82;;;;;;;15.02;95.36;100391.34;4949947;28;20061;-50
2022/11/13 12:33:56;;;;;;;18.25;6.82;;;;;;;15.04;95.21;100393.75;4951086;29;20446;-46
2022/11/13 12:36:28;;;;;;;18.27;6.30;;;;;;;15.05;95.05;100396.16;4951180;29;20039;-46
2022/11/13 12:39:17;;;;;;;15.10;6.43;;;;;;;15.07;94.97;100392.97;4950845;29;20485;-46
2022/11/13 12:41:58;;;;;;;13.88;5.95;;;;;;;15.07;94.72;100388.22;4950550;28;20568;-47
2022/11/13 12:44:27;;;;;;;19.50;6.88;;;;;;;15.06;94.57;100391.41;4939364;29;20039;-47
2022/11/13 12:46:59;;;;;;;16.33;6.35;;;;;;;15.04;94.46;100394.56;4950665;29;20055;-45
2022/11/13 12:49:32;;;;;;;12.98;6.00;;;;;;;15.04;94.32;100372.25;4951042;29;20832;-45
2022/11/13 12:52:17;;;;;;;24.33;7.32;;;;;;;15.06;94.27;100355.94;4932661;29;20137;-45
2022/11/13 12:54:44;;;;;;;15.18;6.03;;;;;;;15.05;94.05;100373.88;4950469;28;20062;-47
2022/11/13 12:57:11;;;;;;;13.32;6.63;;;;;;;15.06;93.77;100366.31;4950948;28;20509;-46
2022/11/13 12:59:46;;;;;;;25.08;7.35;;;;;;;15.06;93.64;100361.50;4950832;29;20401;-46
2022/11/13 13:02:13;;;;;;;23.17;5.95;;;;;;;15.04;93.36;100361.09;4949468;28;20070;-44
2022/11/13 13:05:11;;;;;;;18.50;6.32;;;;;;;15.07;93.35;100359.53;4950820;29;20047;-44
2022/11/13 13:08:12;;;;;;;16.67;6.15;;;;;;;15.05;93.06;100351.56;4950755;29;20051;-44
2022/11/13 13:10:53;;;;;;;17.67;5.10;;;;;;;15.05;92.98;100345.97;4950560;29;20054;-47
2022/11/13 13:13:58;;;;;;;19.85;5.93;;;;;;;15.08;92.97;100338.84;4939328;29;20051;-44
2022/11/13 13:16:27;;;;;;;17.20;6.22;;;;;;;15.07;92.81;100342.78;4950955;28;20055;-47
2022/11/13 13:19:23;;;;;;;12.75;5.63;;;;;;;15.06;92.78;100346.78;4950881;29;20420;-51
2022/11/13 13:21:50;;;;;;;16.15;5.28;;;;;;;14.98;92.58;100357.09;4950229;28;20070;-54
2022/11/13 13:24:31;;;;;;;20.02;7.10;;;;;;;14.93;92.69;100343.47;4950632;29;20049;-47
2022/11/13 13:26:58;;;;;;;12.05;5.63;;;;;;;14.90;92.74;100338.69;4950696;29;20137;-44
2022/11/13 13:29:27;;;;;;;13.73;6.80;;;;;;;14.93;93.06;100332.31;4950545;29;20055;-47
2022/11/13 13:32:00;;;;;;;21.27;6.90;;;;;;;14.98;93.03;100329.19;4950162;28;20036;-46
2022/11/13 13:34:49;;;;;;;14.07;6.13;;;;;;;15.03;92.88;100330.81;4950448;29;20856;-47
2022/11/13 13:37:42;;;;;;;20.75;6.90;;;;;;;15.03;92.40;100344.78;4950445;29;20568;-51
2022/11/13 13:40:15;;;;;;;18.73;5.60;;;;;;;15.01;92.44;100333.97;4933281;29;20433;-53
2022/11/13 13:43:03;;;;;;;19.25;6.80;;;;;;;15.02;92.42;100324.44;4949765;28;20145;-44
2022/11/13 13:45:48;;;;;;;14.82;6.55;;;;;;;15.02;92.23;100321.66;4952575;28;20055;-44
2022/11/13 13:48:18;;;;;;;37.28;8.45;;;;;;;15.02;92.23;100321.66;4942862;28;20043;-44
2022/11/13 13:50:47;;;;;;;17.95;6.15;;;;;;;14.99;92.09;100316.84;4950344;29;20386;-47
2022/11/13 13:53:20;;;;;;;24.48;6.30;;;;;;;14.97;92.08;100316.44;4949518;28;20047;-44
2022/11/13 13:55:57;;;;;;;18.25;6.78;;;;;;;14.95;92.18;100318.81;4950429;29;20055;-45
2022/11/13 13:58:32;;;;;;;22.73;5.97;;;;;;;14.93;92.40;100321.16;4950469;29;20058;-44
2022/11/13 14:01:01;;;;;;;17.92;6.25;;;;;;;14.90;92.31;100315.59;4949882;29;20047;-49
2022/11/13 14:03:45;;;;;;;21.00;7.32;;;;;;;14.85;92.45;100318.72;4943479;29;20115;-47
2022/11/13 14:06:23;;;;;;;17.42;6.65;;;;;;;14.83;92.56;100319.09;4938647;29;20453;-46
2022/11/13 14:08:50;;;;;;;22.10;6.85;;;;;;;14.81;92.63;100307.53;4953610;29;20445;-50
2022/11/13 14:11:25;;;;;;;19.73;6.65;;;;;;;14.82;92.54;100303.56;4952396;29;20506;-45
2022/11/13 14:13:52;;;;;;;24.63;7.30;;;;;;;14.82;92.69;100303.56;4946159;29;20102;-45
2022/11/13 14:16:19;;;;;;;25.73;6.88;;;;;;;14.87;92.55;100296.84;4953226;29;20063;-47
2022/11/13 14:18:46;;;;;;;19.35;8.00;;;;;;;14.91;92.59;100284.53;4953535;29;20126;-44
2022/11/13 14:21:19;;;;;;;21.30;7.80;;;;;;;14.92;92.53;100288.91;4953365;29;20426;-47
2022/11/13 14:23:52;;;;;;;28.00;7.85;;;;;;;14.92;92.41;100297.28;4947737;29;20051;-44
2022/11/13 14:26:19;;;;;;;28.45;7.22;;;;;;;14.89;92.68;100286.09;4953449;29;20470;-48
2022/11/13 14:28:55;;;;;;;21.52;6.43;;;;;;;14.86;92.35;100296.03;4944520;29;20055;-45
2022/11/13 14:31:33;;;;;;;24.85;7.07;;;;;;;14.84;92.36;100292.84;4949703;29;20078;-47
2022/11/13 14:34:14;;;;;;;28.25;7.30;;;;;;;14.82;92.63;100286.84;4939417;29;20063;-45
2022/11/13 14:36:41;;;;;;;31.70;7.22;;;;;;;14.78;92.77;100293.56;4949968;29;20049;-48